createdAt,value
2022-08-19T00:01:52.806Z,23.17
2022-08-19T00:04:25.543Z,23.14
2022-08-19T00:06:54.482Z,23.11
2022-08-19T00:09:24.543Z,23.08
2022-08-19T00:11:54.517Z,23.05
2022-08-19T00:14:24.325Z,23.01
2022-08-19T00:16:55.604Z,22.99
2022-08-19T00:19:24.687Z,22.97
2022-08-19T00:21:53.752Z,22.97
2022-08-19T00:24:21.909Z,22.96
2022-08-19T00:26:51.519Z,22.97
2022-08-19T00:29:21.533Z,22.95
2022-08-19T00:31:51.264Z,22.95
2022-08-19T00:34:19.265Z,22.95
2022-08-19T00:36:48.592Z,22.95
2022-08-19T00:39:17.659Z,22.94
2022-08-19T00:41:50.134Z,22.91
2022-08-19T00:44:27.454Z,22.89
2022-08-19T00:46:59.428Z,22.86
2022-08-19T00:49:52.997Z,22.82
2022-08-19T00:52:28.164Z,22.79
2022-08-19T00:54:57.976Z,22.75
2022-08-19T00:57:39.474Z,22.72
2022-08-19T01:00:13.105Z,22.68
2022-08-19T01:02:43.297Z,22.63
2022-08-19T01:05:24.426Z,22.56
2022-08-19T01:07:52.716Z,22.49
2022-08-19T01:10:25.698Z,22.44
2022-08-19T01:12:55.954Z,22.40
2022-08-19T01:15:31.152Z,22.35
2022-08-19T01:18:03.209Z,22.29
2022-08-19T01:20:31.638Z,22.24
2022-08-19T01:23:00.239Z,22.17
2022-08-19T01:25:42.685Z,22.15
2022-08-19T01:28:17.541Z,22.14
2022-08-19T01:30:51.061Z,22.13
2022-08-19T01:33:20.642Z,22.13
2022-08-19T01:35:52.573Z,22.14
2022-08-19T01:38:24.991Z,22.16
2022-08-19T01:40:53.778Z,22.18
2022-08-19T01:43:22.005Z,22.19
2022-08-19T01:45:50.003Z,22.22
2022-08-19T01:48:18.095Z,22.22
2022-08-19T01:50:46.219Z,22.21
2022-08-19T01:53:14.903Z,22.20
2022-08-19T01:55:44.544Z,22.18
2022-08-19T01:58:19.878Z,22.17
2022-08-19T02:00:48.113Z,22.11
2022-08-19T02:03:17.403Z,22.06
2022-08-19T02:05:46.930Z,22.04
2022-08-19T02:08:15.105Z,22.04
2022-08-19T02:10:44.841Z,22.05
2022-08-19T02:13:14.585Z,22.07
2022-08-19T02:15:43.247Z,22.09
2022-08-19T02:18:11.888Z,22.12
2022-08-19T02:20:41.055Z,22.15
2022-08-19T02:23:13.440Z,22.18
2022-08-19T02:25:43.883Z,22.21
2022-08-19T02:28:15.588Z,22.24
2022-08-19T02:30:48.227Z,22.26
2022-08-19T02:33:17.064Z,22.29
2022-08-19T02:35:47.016Z,22.33
2022-08-19T02:38:28.811Z,22.37
2022-08-19T02:41:00.626Z,22.41
2022-08-19T02:43:33.955Z,22.44
2022-08-19T02:46:03.897Z,22.48
2022-08-19T02:48:34.200Z,22.50
2022-08-19T02:51:02.324Z,22.52
2022-08-19T02:53:30.516Z,22.53
2022-08-19T02:55:58.894Z,22.54
2022-08-19T02:58:27.890Z,22.55
2022-08-19T03:00:57.898Z,22.56
2022-08-19T03:03:26.521Z,22.56
2022-08-19T03:06:14.268Z,22.58
2022-08-19T03:08:47.396Z,22.59
2022-08-19T03:11:23.424Z,22.60
2022-08-19T03:13:52.132Z,22.62
2022-08-19T03:16:23.011Z,22.61
2022-08-19T03:18:52.619Z,22.64
2022-08-19T03:21:26.077Z,22.64
2022-08-19T03:23:59.640Z,22.64
2022-08-19T03:26:28.113Z,22.66
2022-08-19T03:28:58.695Z,22.67
2022-08-19T03:31:44.643Z,22.66
2022-08-19T03:34:21.388Z,22.69
2022-08-19T03:36:49.823Z,22.69
2022-08-19T03:39:18.699Z,22.68
2022-08-19T03:41:48.830Z,22.70
2022-08-19T03:44:22.787Z,22.71
2022-08-19T03:46:55.123Z,22.71
2022-08-19T03:49:27.063Z,22.73
2022-08-19T03:52:01.481Z,22.74
2022-08-19T03:54:29.912Z,22.76
2022-08-19T03:56:58.589Z,22.79
2022-08-19T03:59:30.314Z,22.81
2022-08-19T04:02:01.187Z,22.84
2022-08-19T04:04:30.589Z,22.88
2022-08-19T04:07:00.195Z,22.91
2022-08-19T04:09:28.388Z,22.94
2022-08-19T04:11:58.602Z,22.97
2022-08-19T04:14:31.398Z,23.00
2022-08-19T04:17:00.955Z,23.05
2022-08-19T04:19:31.510Z,23.09
2022-08-19T04:21:59.989Z,23.13
2022-08-19T04:24:29.134Z,23.19
2022-08-19T04:26:57.352Z,23.23
2022-08-19T04:29:26.512Z,23.27
2022-08-19T04:31:57.156Z,23.31
2022-08-19T04:34:29.436Z,23.35
2022-08-19T04:36:59.989Z,23.40
2022-08-19T04:39:50.540Z,23.45
2022-08-19T04:42:37.635Z,23.52
2022-08-19T04:45:15.129Z,23.61
2022-08-19T04:47:48.060Z,23.72
2022-08-19T04:50:27.967Z,24.05
2022-08-19T04:52:57.521Z,24.56
2022-08-19T04:55:28.764Z,25.08
2022-08-19T04:57:56.837Z,25.61
2022-08-19T05:00:24.958Z,26.14
2022-08-19T05:02:53.247Z,26.64
2022-08-19T05:05:22.075Z,26.99
2022-08-19T05:07:50.250Z,27.36
2022-08-19T05:10:18.626Z,27.79
2022-08-19T05:12:46.692Z,28.18
2022-08-19T05:15:15.019Z,28.53
2022-08-19T05:18:03.221Z,28.84
2022-08-19T05:20:50.124Z,29.14
2022-08-19T05:23:22.015Z,29.36
2022-08-19T05:25:52.881Z,29.44
2022-08-19T05:28:21.709Z,29.38
2022-08-19T05:30:52.050Z,29.31
2022-08-19T05:33:20.436Z,29.31
2022-08-19T05:35:50.487Z,29.30
2022-08-19T05:38:18.957Z,29.29
2022-08-19T05:40:50.692Z,29.42
2022-08-19T05:43:18.730Z,29.78
2022-08-19T05:45:47.317Z,30.24
2022-08-19T05:48:15.486Z,30.67
2022-08-19T05:50:43.772Z,30.94
2022-08-19T05:53:11.831Z,31.04
2022-08-19T05:55:40.106Z,30.98
2022-08-19T05:58:08.777Z,30.74
2022-08-19T06:00:38.253Z,30.59
2022-08-19T06:03:12.848Z,30.46
2022-08-19T06:05:50.189Z,30.43
2022-08-19T06:08:21.018Z,30.43
2022-08-19T06:11:26.614Z,30.41
2022-08-19T06:13:59.339Z,30.44
2022-08-19T06:16:29.416Z,30.69
2022-08-19T06:19:00.730Z,30.88
2022-08-19T06:21:31.419Z,30.89
2022-08-19T06:24:00.312Z,31.00
2022-08-19T06:26:28.791Z,31.13
2022-08-19T06:28:56.839Z,31.29
2022-08-19T06:31:27.990Z,31.41
2022-08-19T06:33:56.526Z,31.57
2022-08-19T06:36:31.228Z,31.61
2022-08-19T06:39:00.321Z,31.54
2022-08-19T06:41:29.697Z,31.46
2022-08-19T06:43:58.453Z,31.39
2022-08-19T06:46:27.774Z,31.32
2022-08-19T06:48:58.984Z,31.33
2022-08-19T06:53:59.842Z,31.31
2022-08-19T06:56:33.019Z,31.15
2022-08-19T06:59:09.671Z,30.97
2022-08-19T07:01:39.579Z,30.80
2022-08-19T07:04:09.727Z,30.70
2022-08-19T07:06:43.717Z,30.53
2022-08-19T07:09:18.634Z,30.42
2022-08-19T07:11:50.320Z,30.41
2022-08-19T07:14:21.524Z,30.40
2022-08-19T07:16:51.248Z,30.37
2022-08-19T07:19:20.483Z,30.33
2022-08-19T07:21:53.943Z,30.24
2022-08-19T07:24:25.180Z,30.19
2022-08-19T07:26:57.982Z,30.19
2022-08-19T07:29:28.569Z,30.14
2022-08-19T07:31:57.859Z,30.16
2022-08-19T07:34:30.439Z,30.15
2022-08-19T07:36:58.929Z,30.06
2022-08-19T07:39:30.379Z,30.02
2022-08-19T07:42:00.656Z,30.03
2022-08-19T07:44:28.970Z,30.07
2022-08-19T07:46:58.533Z,30.06
2022-08-19T07:49:26.596Z,30.03
2022-08-19T07:52:02.554Z,30.05
2022-08-19T07:54:35.537Z,30.00
2022-08-19T07:57:04.557Z,29.98
2022-08-19T07:59:33.446Z,29.97
2022-08-19T08:02:02.044Z,29.99
2022-08-19T08:04:49.781Z,30.01
2022-08-19T08:07:36.518Z,30.06
2022-08-19T08:10:08.546Z,30.13
2022-08-19T08:13:01.837Z,30.18
2022-08-19T08:15:42.673Z,30.27
2022-08-19T08:18:12.919Z,30.29
2022-08-19T08:20:42.879Z,30.29
2022-08-19T08:23:27.005Z,30.33
2022-08-19T08:25:58.986Z,30.35
2022-08-19T08:28:29.308Z,30.36
2022-08-19T08:30:58.827Z,30.33
2022-08-19T08:33:34.414Z,30.31
2022-08-19T08:36:06.435Z,30.28
2022-08-19T08:38:39.942Z,30.27
2022-08-19T08:41:28.976Z,30.27
2022-08-19T08:43:58.447Z,30.32
2022-08-19T08:46:41.194Z,30.39
2022-08-19T08:49:27.709Z,30.49
2022-08-19T08:52:25.158Z,30.59
2022-08-19T08:55:09.972Z,30.72
2022-08-19T08:57:45.074Z,30.80
2022-08-19T09:00:19.045Z,30.78
2022-08-19T09:02:50.928Z,30.79
2022-08-19T09:05:25.883Z,30.85
2022-08-19T09:08:33.146Z,30.94
2022-08-19T09:11:07.711Z,31.08
2022-08-19T09:13:49.614Z,31.15
2022-08-19T09:16:28.082Z,31.22
2022-08-19T09:19:01.942Z,31.29
2022-08-19T09:21:34.276Z,31.38
2022-08-19T09:24:03.747Z,31.37
2022-08-19T09:26:47.563Z,31.43
2022-08-19T09:29:22.474Z,31.48
2022-08-19T09:31:51.235Z,31.48
2022-08-19T09:34:22.138Z,31.49
2022-08-19T09:36:54.295Z,31.49
2022-08-19T09:39:23.827Z,31.47
2022-08-19T09:41:54.054Z,31.40
2022-08-19T09:44:22.416Z,31.38
2022-08-19T09:46:51.970Z,31.33
2022-08-19T09:49:22.863Z,31.24
2022-08-19T09:51:57.266Z,31.17
2022-08-19T09:54:25.594Z,31.08
2022-08-19T09:56:55.828Z,31.01
2022-08-19T09:59:24.051Z,30.96
2022-08-19T10:01:53.002Z,31.00
2022-08-19T10:04:22.520Z,31.10
2022-08-19T10:06:57.770Z,31.25
2022-08-19T10:09:34.582Z,31.38
2022-08-19T10:12:06.075Z,31.47
2022-08-19T10:14:35.350Z,31.56
2022-08-19T10:17:17.447Z,31.55
2022-08-19T10:19:55.102Z,31.60
2022-08-19T10:22:25.461Z,31.63
2022-08-19T10:24:54.784Z,31.61
2022-08-19T10:27:23.150Z,31.63
2022-08-19T10:29:51.992Z,31.67
2022-08-19T10:32:20.164Z,31.67
2022-08-19T10:35:06.115Z,31.66
2022-08-19T10:37:34.576Z,31.61
2022-08-19T10:40:07.001Z,31.63
2022-08-19T10:42:36.610Z,31.65
2022-08-19T10:45:07.090Z,31.65
2022-08-19T10:47:35.698Z,31.64
2022-08-19T10:50:28.476Z,31.61
2022-08-19T10:52:57.023Z,31.58
2022-08-19T10:55:44.375Z,31.62
2022-08-19T10:58:18.151Z,31.66
2022-08-19T11:00:54.412Z,31.67
2022-08-19T11:03:23.023Z,31.69
2022-08-19T11:06:06.921Z,31.68
2022-08-19T11:08:38.609Z,31.66
2022-08-19T11:11:08.176Z,31.65
2022-08-19T11:13:39.625Z,31.68
2022-08-19T11:16:14.898Z,31.75
2022-08-19T11:18:46.743Z,31.80
2022-08-19T11:21:18.355Z,31.81
2022-08-19T11:23:48.466Z,31.80
2022-08-19T11:26:17.833Z,31.80
2022-08-19T11:28:46.837Z,31.74
2022-08-19T11:31:19.366Z,31.74
2022-08-19T11:33:48.158Z,31.76
2022-08-19T11:36:17.463Z,31.75
2022-08-19T11:38:46.294Z,31.76
2022-08-19T11:41:14.332Z,31.77
2022-08-19T11:43:42.836Z,31.75
2022-08-19T11:46:14.187Z,31.74
2022-08-19T11:48:42.874Z,31.74
2022-08-19T11:51:15.857Z,31.77
2022-08-19T11:53:43.925Z,31.79
2022-08-19T11:56:12.613Z,31.83
2022-08-19T11:58:43.155Z,31.88
2022-08-19T12:01:13.369Z,31.95
2022-08-19T12:03:41.844Z,32.04
2022-08-19T12:06:14.389Z,32.08
2022-08-19T12:08:44.110Z,32.12
2022-08-19T12:11:14.711Z,32.11
2022-08-19T12:13:46.149Z,32.13
2022-08-19T12:16:18.369Z,32.16
2022-08-19T12:18:47.552Z,32.19
2022-08-19T12:21:18.040Z,32.25
2022-08-19T12:23:46.474Z,32.25
2022-08-19T12:26:14.644Z,32.25
2022-08-19T12:28:42.757Z,32.29
2022-08-19T12:31:13.186Z,32.34
2022-08-19T12:33:42.691Z,32.37
2022-08-19T12:36:12.974Z,32.39
2022-08-19T12:38:41.738Z,32.42
2022-08-19T12:41:13.312Z,32.44
2022-08-19T12:43:42.988Z,32.43
2022-08-19T12:46:11.912Z,32.45
2022-08-19T12:48:46.736Z,32.49
2022-08-19T12:51:20.412Z,32.51
2022-08-19T12:53:48.813Z,32.53
2022-08-19T12:56:22.282Z,32.54
2022-08-19T12:58:53.166Z,32.54
2022-08-19T13:01:23.178Z,32.54
2022-08-19T13:03:54.716Z,32.54
2022-08-19T13:06:22.910Z,32.52
2022-08-19T13:08:51.280Z,32.48
2022-08-19T13:11:22.004Z,32.45
2022-08-19T13:13:52.194Z,32.45
2022-08-19T13:16:21.516Z,32.45
2022-08-19T13:18:50.407Z,32.43
2022-08-19T13:21:21.050Z,32.43
2022-08-19T13:23:52.080Z,32.46
2022-08-19T13:26:20.581Z,32.49
2022-08-19T13:29:07.364Z,32.53
2022-08-19T13:31:56.360Z,32.55
2022-08-19T13:34:35.123Z,32.60
2022-08-19T13:37:05.375Z,32.63
2022-08-19T13:39:35.075Z,32.63
2022-08-19T13:42:05.316Z,32.62
2022-08-19T13:44:33.632Z,32.62
2022-08-19T13:47:08.165Z,32.58
2022-08-19T13:49:37.442Z,32.49
2022-08-19T13:52:06.820Z,32.38
2022-08-19T13:54:35.068Z,32.31
2022-08-19T13:57:03.298Z,32.24
2022-08-19T13:59:31.386Z,32.21
2022-08-19T14:02:01.553Z,32.19
2022-08-19T14:04:29.630Z,32.20
2022-08-19T14:06:57.715Z,32.21
2022-08-19T14:09:25.956Z,32.25
2022-08-19T14:11:54.020Z,32.30
2022-08-19T14:14:22.549Z,32.37
2022-08-19T14:16:50.990Z,32.42
2022-08-19T14:19:19.158Z,32.42
2022-08-19T14:21:47.286Z,32.42
2022-08-19T14:24:15.500Z,32.39
2022-08-19T14:26:43.774Z,32.37
2022-08-19T14:29:11.816Z,32.36
2022-08-19T14:31:41.035Z,32.33
2022-08-19T14:34:09.215Z,32.31
2022-08-19T14:36:39.354Z,32.26
2022-08-19T14:39:07.712Z,32.24
2022-08-19T14:41:35.783Z,32.22
2022-08-19T14:44:04.003Z,32.23
2022-08-19T14:46:32.311Z,32.23
2022-08-19T14:49:00.604Z,32.23
2022-08-19T14:51:29.194Z,32.23
2022-08-19T14:53:57.770Z,32.24
2022-08-19T14:56:28.709Z,32.25
2022-08-19T14:59:00.303Z,32.25
2022-08-19T15:01:29.385Z,32.25
2022-08-19T15:03:57.676Z,32.24
2022-08-19T15:06:27.255Z,32.24
2022-08-19T15:08:57.774Z,32.23
2022-08-19T15:11:29.224Z,32.23
2022-08-19T15:13:58.392Z,32.23
2022-08-19T15:16:27.827Z,32.24
2022-08-19T15:18:58.679Z,32.24
2022-08-19T15:21:28.627Z,32.24
2022-08-19T15:23:58.937Z,32.25
2022-08-19T15:26:29.308Z,32.24
2022-08-19T15:28:57.402Z,32.22
2022-08-19T15:31:28.838Z,32.20
2022-08-19T15:34:00.821Z,32.18
2022-08-19T15:36:29.423Z,32.14
2022-08-19T15:38:57.652Z,32.12
2022-08-19T15:41:30.788Z,32.08
2022-08-19T15:44:00.856Z,32.04
2022-08-19T15:46:32.717Z,32.00
2022-08-19T15:49:01.467Z,31.96
2022-08-19T15:51:32.595Z,31.93
2022-08-19T15:54:02.050Z,31.92
2022-08-19T15:56:58.185Z,31.91
2022-08-19T15:59:47.265Z,31.90
2022-08-19T16:02:37.204Z,31.88
2022-08-19T16:05:29.234Z,31.83
2022-08-19T16:07:57.879Z,31.78
2022-08-19T16:10:28.009Z,31.72
2022-08-19T16:12:57.863Z,31.69
2022-08-19T16:15:28.217Z,31.67
2022-08-19T16:18:02.735Z,31.65
2022-08-19T16:20:31.930Z,31.62
2022-08-19T16:23:03.548Z,31.59
2022-08-19T16:25:31.733Z,31.57
2022-08-19T16:28:07.367Z,31.55
2022-08-19T16:30:39.440Z,31.52
2022-08-19T16:33:09.050Z,31.49
2022-08-19T16:35:38.219Z,31.46
2022-08-19T16:38:07.248Z,31.42
2022-08-19T16:40:35.992Z,31.41
2022-08-19T16:43:04.711Z,31.38
2022-08-19T16:45:32.986Z,31.36
2022-08-19T16:48:01.023Z,31.34
2022-08-19T16:50:48.318Z,31.31
2022-08-19T16:53:22.875Z,31.27
2022-08-19T16:55:53.471Z,31.24
2022-08-19T16:58:28.556Z,31.21
2022-08-19T17:01:03.292Z,31.15
2022-08-19T17:03:36.432Z,31.12
2022-08-19T17:06:15.853Z,31.08
2022-08-19T17:08:48.717Z,31.05
2022-08-19T17:11:19.613Z,31.01
2022-08-19T17:13:51.066Z,30.96
2022-08-19T17:16:24.760Z,30.91
2022-08-19T17:18:54.606Z,30.86
2022-08-19T17:21:27.795Z,30.81
2022-08-19T17:24:01.497Z,30.76
2022-08-19T17:26:30.695Z,30.71
2022-08-19T17:29:00.006Z,30.67
2022-08-19T17:31:30.412Z,30.62
2022-08-19T17:33:59.037Z,30.58
2022-08-19T17:36:30.854Z,30.54
2022-08-19T17:39:01.316Z,30.50
2022-08-19T17:41:30.732Z,30.45
2022-08-19T17:43:58.995Z,30.42
2022-08-19T17:46:28.668Z,30.36
2022-08-19T17:48:57.965Z,30.34
2022-08-19T17:51:40.627Z,30.31
2022-08-19T17:54:14.284Z,30.26
2022-08-19T17:56:43.925Z,30.22
2022-08-19T17:59:14.080Z,30.19
2022-08-19T18:01:54.161Z,30.15
2022-08-19T18:04:25.633Z,30.11
2022-08-19T18:06:55.537Z,30.08
2022-08-19T18:09:38.725Z,30.04
2022-08-19T18:12:12.662Z,30.00
2022-08-19T18:14:40.742Z,29.98
2022-08-19T18:17:12.880Z,29.95
2022-08-19T18:19:43.525Z,29.93
2022-08-19T18:22:22.655Z,29.90
2022-08-19T18:24:51.395Z,29.87
2022-08-19T18:27:20.088Z,29.85
2022-08-19T18:29:48.366Z,29.82
2022-08-19T18:32:18.098Z,29.78
2022-08-19T18:34:53.515Z,29.76
2022-08-19T18:37:23.359Z,29.72
2022-08-19T18:40:10.304Z,29.69
2022-08-19T18:43:03.778Z,29.66
2022-08-19T18:45:50.954Z,29.62
2022-08-19T18:48:57.532Z,29.57
2022-08-19T18:51:30.203Z,29.50
2022-08-19T18:53:59.674Z,29.43
2022-08-19T18:56:32.025Z,29.38
2022-08-19T18:59:01.020Z,29.33
2022-08-19T19:01:36.800Z,29.30
2022-08-19T19:04:10.934Z,29.27
2022-08-19T19:06:41.550Z,29.24
2022-08-19T19:09:21.136Z,29.18
2022-08-19T19:11:52.861Z,29.14
2022-08-19T19:14:47.551Z,29.08
2022-08-19T19:17:15.426Z,29.04
2022-08-19T19:19:44.184Z,29.01
2022-08-19T19:22:15.042Z,28.98
2022-08-19T19:24:44.547Z,28.94
2022-08-19T19:27:15.383Z,28.92
2022-08-19T19:29:43.566Z,28.87
2022-08-19T19:32:26.236Z,28.83
2022-08-19T19:34:54.559Z,28.78
2022-08-19T19:37:23.130Z,28.74
2022-08-19T19:39:52.813Z,28.72
2022-08-19T19:42:23.959Z,28.70
2022-08-19T19:44:55.640Z,28.66
2022-08-19T19:47:25.899Z,28.64
2022-08-19T19:52:46.211Z,28.56
2022-08-19T19:55:18.525Z,28.52
2022-08-19T19:57:50.161Z,28.50
2022-08-19T20:00:19.169Z,28.47
2022-08-19T20:02:50.437Z,28.45
2022-08-19T20:05:21.637Z,28.42
2022-08-19T20:08:10.271Z,28.39
2022-08-19T20:10:40.910Z,28.34
2022-08-19T20:13:10.510Z,28.30
2022-08-19T20:15:42.718Z,28.25
2022-08-19T20:18:14.705Z,28.19
2022-08-19T20:20:43.913Z,28.15
2022-08-19T20:23:12.154Z,28.09
2022-08-19T20:25:40.432Z,28.02
2022-08-19T20:28:09.364Z,27.97
2022-08-19T20:30:38.433Z,27.91
2022-08-19T20:33:14.881Z,27.85
2022-08-19T20:35:45.057Z,27.78
2022-08-19T20:38:13.889Z,27.74
2022-08-19T20:40:41.942Z,27.69
2022-08-19T20:43:13.048Z,27.65
2022-08-19T20:45:41.686Z,27.61
2022-08-19T20:48:12.446Z,27.55
2022-08-19T20:50:41.105Z,27.50
2022-08-19T20:53:15.002Z,27.44
2022-08-19T20:55:45.461Z,27.40
2022-08-19T20:58:14.119Z,27.36
2022-08-19T21:00:46.504Z,27.33
2022-08-19T21:03:20.611Z,27.30
2022-08-19T21:05:49.595Z,27.28
2022-08-19T21:08:21.456Z,27.24
2022-08-19T21:10:51.319Z,27.24
2022-08-19T21:13:21.341Z,27.22
2022-08-19T21:15:50.686Z,27.19
2022-08-19T21:18:20.571Z,27.16
2022-08-19T21:20:50.389Z,27.14
2022-08-19T21:23:25.216Z,27.11
2022-08-19T21:25:54.876Z,27.08
2022-08-19T21:28:29.990Z,27.04
2022-08-19T21:31:07.063Z,27.02
2022-08-19T21:33:35.237Z,27.01
2022-08-19T21:36:04.976Z,27.00
2022-08-19T21:38:33.053Z,26.99
2022-08-19T21:41:05.851Z,26.99
2022-08-19T21:43:36.359Z,27.00
2022-08-19T21:46:05.001Z,27.01
2022-08-19T21:48:33.280Z,27.03
2022-08-19T21:51:01.455Z,27.07
2022-08-19T21:53:31.304Z,27.10
2022-08-19T21:56:04.290Z,27.14
2022-08-19T21:58:33.674Z,27.17
2022-08-19T22:01:06.096Z,27.19
2022-08-19T22:03:35.829Z,27.22
2022-08-19T22:06:04.784Z,27.24
2022-08-19T22:08:32.902Z,27.25
2022-08-19T22:11:02.999Z,27.26
2022-08-19T22:13:39.933Z,27.27
2022-08-19T22:16:09.794Z,27.27
2022-08-19T22:18:38.082Z,27.28
2022-08-19T22:21:11.258Z,27.27
2022-08-19T22:23:42.308Z,27.29
2022-08-19T22:26:12.630Z,27.30
2022-08-19T22:28:42.799Z,27.31
2022-08-19T22:31:12.261Z,27.30
2022-08-19T22:33:40.701Z,27.32
2022-08-19T22:36:08.828Z,27.31
2022-08-19T22:38:38.418Z,27.30
2022-08-19T22:41:08.025Z,27.29
2022-08-19T22:43:37.643Z,27.27
2022-08-19T22:46:15.085Z,27.22
2022-08-19T22:48:47.092Z,27.16
2022-08-19T22:51:34.814Z,27.12
2022-08-19T22:54:04.186Z,27.07
2022-08-19T22:56:32.277Z,27.04
2022-08-19T22:59:00.393Z,27.02
2022-08-19T23:01:30.265Z,27.00
2022-08-19T23:04:00.224Z,26.99
2022-08-19T23:06:34.650Z,26.97
2022-08-19T23:09:07.264Z,26.95
2022-08-19T23:11:38.255Z,26.93
2022-08-19T23:14:11.520Z,26.92
2022-08-19T23:16:41.335Z,26.90
2022-08-19T23:19:10.733Z,26.89
2022-08-19T23:21:42.064Z,26.86
2022-08-19T23:24:11.270Z,26.84
2022-08-19T23:27:00.246Z,26.83
2022-08-19T23:29:47.296Z,26.81
2022-08-19T23:32:19.207Z,26.78
2022-08-19T23:34:47.681Z,26.75
2022-08-19T23:37:15.814Z,26.72
2022-08-19T23:39:45.144Z,26.69
2022-08-19T23:42:13.988Z,26.64
2022-08-19T23:44:51.996Z,26.61
2022-08-19T23:47:21.755Z,26.58
2022-08-19T23:49:50.901Z,26.54
2022-08-19T23:52:19.581Z,26.52
2022-08-19T23:54:47.795Z,26.47
2022-08-19T23:57:15.880Z,26.43
2022-08-19T23:59:45.792Z,26.36
